Time;durP1;ratioP1;P1;durP2;ratioP2;P2;SDS_P1;SDS_P2;PMS_P1;PMS_P2;Temp;Humidity;BMP_temperature;BMP_pressure;BME280_temperature;BME280_humidity;BME280_pressure;Samples;Min_cycle;Max_cycle;Signal;HPM_P1;HPM_P2
2021/04/24 00:00:26;;;;;;;8.57;3.83;;;8.90;99.90;;;;;;4151945;28;20025;-68
2021/04/24 00:02:27;;;;;;;7.85;3.97;;;9.00;99.90;;;;;;4155948;28;20029;-68
2021/04/24 00:04:28;;;;;;;6.05;3.75;;;9.00;99.90;;;;;;4140809;28;20030;-68
2021/04/24 00:06:29;;;;;;;6.63;3.78;;;9.00;99.90;;;;;;4157178;28;20036;-68
2021/04/24 00:08:29;;;;;;;7.32;3.90;;;9.00;99.90;;;;;;4140866;28;20614;-68
2021/04/24 00:10:32;;;;;;;9.40;4.10;;;9.00;99.90;;;;;;4142099;28;20042;-68
2021/04/24 00:12:33;;;;;;;;;;;9.00;99.90;;;;;;4136227;28;20030;-68
2021/04/24 00:14:34;;;;;;;9.32;3.70;;;9.00;99.90;;;;;;4173054;28;19931;-68
2021/04/24 00:16:35;;;;;;;5.25;3.55;;;9.00;99.90;;;;;;4142504;28;20359;-68
2021/04/24 00:18:36;;;;;;;6.82;3.85;;;9.00;99.90;;;;;;4156236;28;20048;-68
2021/04/24 00:20:37;;;;;;;6.95;3.63;;;9.00;99.90;;;;;;4142141;28;20114;-68
2021/04/24 00:22:38;;;;;;;6.68;4.38;;;9.00;99.90;;;;;;4140891;28;20053;-68
2021/04/24 00:24:39;;;;;;;7.45;4.00;;;9.00;99.90;;;;;;4141888;28;20100;-68
2021/04/24 00:26:39;;;;;;;9.35;3.88;;;9.00;99.90;;;;;;4139989;28;20614;-68
2021/04/24 00:28:40;;;;;;;7.00;3.83;;;8.90;99.90;;;;;;4142181;28;20026;-68
2021/04/24 00:30:41;;;;;;;8.20;3.80;;;8.90;99.90;;;;;;4140852;28;20109;-68
2021/04/24 00:32:43;;;;;;;8.02;3.90;;;8.90;99.90;;;;;;4140740;28;20030;-68
2021/04/24 00:34:44;;;;;;;6.70;3.45;;;8.80;99.90;;;;;;4132115;28;20513;-68
2021/04/24 00:36:45;;;;;;;7.90;4.18;;;8.80;99.90;;;;;;4132502;28;20026;-68
2021/04/24 00:38:45;;;;;;;7.60;3.92;;;8.80;99.90;;;;;;4124249;28;20042;-68
2021/04/24 00:40:46;;;;;;;11.95;4.25;;;8.70;99.90;;;;;;4124315;28;20206;-68
2021/04/24 00:42:48;;;;;;;6.32;3.72;;;8.70;99.90;;;;;;4125991;28;20030;-68
2021/04/24 00:44:51;;;;;;;6.80;3.90;;;8.70;99.90;;;;;;4123253;28;20042;-68
2021/04/24 00:46:51;;;;;;;7.65;4.20;;;8.60;99.90;;;;;;4143110;28;20029;-68
2021/04/24 00:48:52;;;;;;;9.00;4.25;;;8.60;99.90;;;;;;4126846;28;20136;-68
2021/04/24 00:50:53;;;;;;;8.05;4.00;;;8.60;99.90;;;;;;4155280;28;20458;-68
2021/04/24 00:52:53;;;;;;;10.60;4.30;;;8.50;99.90;;;;;;4158414;28;20470;-68
2021/04/24 00:54:54;;;;;;;8.40;4.25;;;8.50;99.90;;;;;;4149536;28;20080;-68
2021/04/24 00:56:55;;;;;;;8.38;4.30;;;8.40;99.90;;;;;;4158800;28;20122;-68
2021/04/24 00:58:55;;;;;;;10.60;4.82;;;8.40;99.90;;;;;;4152444;28;20049;-68
2021/04/24 01:00:57;;;;;;;8.27;4.10;;;8.40;99.90;;;;;;4156464;28;20038;-68
2021/04/24 01:02:58;;;;;;;7.57;4.00;;;8.40;99.90;;;;;;4158600;28;20030;-68
2021/04/24 01:04:59;;;;;;;7.10;3.88;;;8.40;99.90;;;;;;4141458;28;20030;-68
2021/04/24 01:07:00;;;;;;;7.32;4.18;;;8.30;99.90;;;;;;4142141;28;20394;-68
2021/04/24 01:09:02;;;;;;;7.38;3.70;;;8.30;99.90;;;;;;4141735;28;20121;-68
2021/04/24 01:11:03;;;;;;;6.47;3.78;;;8.30;99.90;;;;;;4142273;28;20596;-68
2021/04/24 01:13:05;;;;;;;8.35;4.45;;;8.30;99.90;;;;;;4175906;28;20110;-68
2021/04/24 01:15:06;;;;;;;5.85;3.80;;;8.30;99.90;;;;;;4144108;28;20187;-68
2021/04/24 01:17:07;;;;;;;6.63;3.85;;;8.20;99.90;;;;;;4149709;28;20398;-68
2021/04/24 01:19:13;;;;;;;6.95;4.07;;;8.20;99.90;;;;;;4145160;28;20113;-68
2021/04/24 01:21:16;;;;;;;8.98;4.18;;;8.20;99.90;;;;;;4144173;28;20038;-68
2021/04/24 01:23:17;;;;;;;9.18;4.70;;;8.20;99.90;;;;;;4144968;28;20056;-68
2021/04/24 01:25:21;;;;;;;9.55;3.90;;;8.10;99.90;;;;;;4144086;28;20109;-68
2021/04/24 01:27:21;;;;;;;5.63;3.45;;;8.10;99.90;;;;;;4144022;28;20030;-68
2021/04/24 01:29:23;;;;;;;5.53;3.40;;;8.10;99.90;;;;;;4144846;28;20056;-68
2021/04/24 01:31:24;;;;;;;8.10;4.07;;;8.10;99.90;;;;;;4159555;28;20037;-68
2021/04/24 01:33:25;;;;;;;9.30;3.88;;;8.10;99.90;;;;;;4141687;28;20030;-68
2021/04/24 01:35:28;;;;;;;6.47;4.07;;;8.00;99.90;;;;;;4144443;28;20037;-68
2021/04/24 01:37:29;;;;;;;12.68;4.20;;;8.00;99.90;;;;;;4158722;28;20117;-68
2021/04/24 01:39:31;;;;;;;7.55;4.22;;;8.00;99.90;;;;;;4143428;28;20061;-68
2021/04/24 01:41:33;;;;;;;10.43;4.45;;;8.00;99.90;;;;;;4144201;28;20050;-68
2021/04/24 01:43:35;;;;;;;9.77;4.00;;;7.90;99.90;;;;;;4141488;28;20041;-68
2021/04/24 01:45:36;;;;;;;5.57;3.60;;;7.90;99.90;;;;;;4147754;28;20037;-68
2021/04/24 01:47:39;;;;;;;6.82;3.63;;;7.90;99.90;;;;;;4160933;28;20100;-68
2021/04/24 01:49:40;;;;;;;8.75;3.90;;;8.00;99.90;;;;;;4148653;28;20125;-68
2021/04/24 01:51:40;;;;;;;8.35;3.70;;;8.00;99.90;;;;;;4144591;28;20034;-68
2021/04/24 01:53:41;;;;;;;7.07;3.97;;;8.00;99.90;;;;;;4144152;28;20064;-68
2021/04/24 01:55:42;;;;;;;6.85;3.70;;;8.00;99.90;;;;;;4142484;28;20048;-68
2021/04/24 01:57:45;;;;;;;7.65;3.58;;;8.10;99.90;;;;;;4143914;28;20041;-68
2021/04/24 01:59:46;;;;;;;7.50;3.75;;;8.00;99.90;;;;;;4144089;28;20034;-68
2021/04/24 02:01:50;;;;;;;6.88;3.42;;;8.10;99.90;;;;;;4158796;28;20454;-68
2021/04/24 02:03:51;;;;;;;7.00;3.90;;;8.10;99.90;;;;;;4144018;28;20033;-68
2021/04/24 02:05:52;;;;;;;8.07;3.97;;;8.10;99.90;;;;;;4143013;28;20100;-68
2021/04/24 02:08:03;;;;;;;6.85;3.75;;;8.10;99.90;;;;;;4144431;28;20069;-68
2021/04/24 02:10:10;;;;;;;8.13;4.07;;;8.10;99.90;;;;;;4126960;28;20042;-68
2021/04/24 02:12:13;;;;;;;6.95;3.95;;;8.20;99.90;;;;;;4150633;28;20053;-68
2021/04/24 02:14:13;;;;;;;;;;;8.20;99.90;;;;;;4153411;28;20038;-68
2021/04/24 02:16:14;;;;;;;8.60;3.97;;;8.20;99.90;;;;;;4146679;28;20396;-68
2021/04/24 02:18:15;;;;;;;5.68;3.53;;;8.20;99.90;;;;;;4160187;28;20033;-68
2021/04/24 02:20:17;;;;;;;6.35;3.70;;;8.20;99.90;;;;;;4148268;28;20030;-68
2021/04/24 02:22:19;;;;;;;8.20;3.65;;;8.20;99.90;;;;;;4143730;28;20026;-68
2021/04/24 02:24:20;;;;;;;9.15;4.10;;;8.20;99.90;;;;;;4144106;28;20030;-68
2021/04/24 02:26:20;;;;;;;7.38;4.00;;;8.20;99.90;;;;;;4142793;28;20037;-68
2021/04/24 02:28:21;;;;;;;7.13;4.03;;;8.20;99.90;;;;;;4143731;28;20026;-68
2021/04/24 02:30:22;;;;;;;8.10;3.70;;;8.10;99.90;;;;;;4136383;28;20585;-68
2021/04/24 02:32:26;;;;;;;8.13;3.70;;;8.10;99.90;;;;;;4143854;28;20026;-68
2021/04/24 02:34:27;;;;;;;6.50;3.70;;;8.10;99.90;;;;;;4143781;28;20041;-68
2021/04/24 02:36:27;;;;;;;6.25;3.50;;;8.10;99.90;;;;;;4157001;28;20030;-68
2021/04/24 02:38:31;;;;;;;6.05;3.80;;;8.00;99.90;;;;;;4136101;28;20033;-68
2021/04/24 02:40:32;;;;;;;7.28;3.83;;;8.00;99.90;;;;;;4126114;28;20054;-68
2021/04/24 02:42:33;;;;;;;8.98;4.38;;;8.00;99.90;;;;;;4141590;28;20049;-68
2021/04/24 02:44:34;;;;;;;5.53;3.35;;;7.90;99.90;;;;;;4126954;28;20049;-68
2021/04/24 02:46:35;;;;;;;8.30;4.28;;;7.90;99.90;;;;;;4135730;28;20034;-68
2021/04/24 02:48:35;;;;;;;7.50;3.83;;;7.90;99.90;;;;;;4158025;28;20037;-68
2021/04/24 02:50:36;;;;;;;5.70;3.78;;;7.90;99.90;;;;;;4142590;28;20084;-68
2021/04/24 02:52:37;;;;;;;6.90;3.97;;;7.80;99.90;;;;;;4141724;28;20034;-68
2021/04/24 02:54:38;;;;;;;6.45;3.60;;;7.90;99.90;;;;;;4142053;28;20095;-68
2021/04/24 02:56:39;;;;;;;5.95;3.47;;;7.90;99.90;;;;;;4142787;28;20107;-68
2021/04/24 02:58:40;;;;;;;6.55;3.90;;;7.80;99.90;;;;;;4143091;28;20471;-68
2021/04/24 03:00:40;;;;;;;7.40;4.32;;;7.80;99.90;;;;;;4142971;28;20030;-68
2021/04/24 03:02:41;;;;;;;9.13;4.07;;;7.80;99.90;;;;;;4142722;28;20084;-68
2021/04/24 03:04:42;;;;;;;8.40;4.10;;;7.80;99.90;;;;;;4140343;28;20044;-68
2021/04/24 03:06:43;;;;;;;8.88;4.75;;;7.70;99.90;;;;;;4139880;28;20431;-68
2021/04/24 03:08:44;;;;;;;9.20;4.38;;;7.70;99.90;;;;;;4140765;28;20041;-68
2021/04/24 03:10:44;;;;;;;10.35;4.72;;;7.70;99.90;;;;;;4139203;28;20041;-68
2021/04/24 03:12:45;;;;;;;7.55;4.00;;;7.70;99.90;;;;;;4141266;28;20033;-68
2021/04/24 03:14:46;;;;;;;7.63;4.05;;;7.70;99.90;;;;;;4142376;28;20042;-68
2021/04/24 03:16:46;;;;;;;7.85;4.47;;;7.70;99.90;;;;;;4138648;28;20034;-68
2021/04/24 03:18:47;;;;;;;7.38;4.38;;;7.70;99.90;;;;;;4137244;28;20137;-68
2021/04/24 03:20:47;;;;;;;7.93;4.53;;;7.70;99.90;;;;;;4139847;28;20034;-68
2021/04/24 03:22:48;;;;;;;8.55;4.60;;;7.70;99.90;;;;;;4140641;28;20490;-68
2021/04/24 03:24:49;;;;;;;11.25;4.45;;;7.70;99.90;;;;;;4136986;28;20103;-68
2021/04/24 03:26:49;;;;;;;7.50;4.47;;;7.70;99.90;;;;;;4139352;28;20029;-68
2021/04/24 03:28:53;;;;;;;8.45;4.15;;;7.70;99.90;;;;;;4137617;28;21722;-68
2021/04/24 03:30:54;;;;;;;6.97;4.18;;;7.70;99.90;;;;;;4142519;28;20030;-69
2021/04/24 03:32:54;;;;;;;6.50;4.10;;;7.70;99.90;;;;;;4141002;28;20116;-68
2021/04/24 03:34:55;;;;;;;6.50;4.00;;;7.70;99.90;;;;;;4164905;28;20120;-68
2021/04/24 03:36:56;;;;;;;11.85;4.35;;;7.80;99.90;;;;;;4142224;28;20499;-68
2021/04/24 03:38:57;;;;;;;6.38;3.85;;;7.80;99.90;;;;;;4162487;28;20044;-68
2021/04/24 03:40:58;;;;;;;7.30;4.28;;;7.80;99.90;;;;;;4169016;28;20057;-68
2021/04/24 03:42:58;;;;;;;7.68;4.28;;;7.80;99.90;;;;;;4142470;28;20133;-68
2021/04/24 03:44:59;;;;;;;9.07;4.90;;;7.70;99.90;;;;;;4142527;28;20437;-68
2021/04/24 03:46:59;;;;;;;7.90;4.45;;;7.70;99.90;;;;;;4132694;28;20109;-69
2021/04/24 03:49:00;;;;;;;8.90;4.38;;;7.70;99.90;;;;;;4130864;28;20707;-68
2021/04/24 03:51:01;;;;;;;8.90;4.65;;;7.70;99.90;;;;;;4125181;28;20046;-68
2021/04/24 03:53:02;;;;;;;8.70;3.92;;;7.70;99.90;;;;;;4142243;28;20366;-68
2021/04/24 03:55:04;;;;;;;6.45;3.92;;;7.70;99.90;;;;;;4142541;28;20030;-68
2021/04/24 03:57:04;;;;;;;7.65;3.95;;;7.70;99.90;;;;;;4140765;28;20045;-68
2021/04/24 03:59:05;;;;;;;6.88;3.97;;;7.60;99.90;;;;;;4141047;28;20490;-68
2021/04/24 04:01:06;;;;;;;9.85;4.65;;;7.60;99.90;;;;;;4141694;28;20030;-68
2021/04/24 04:03:08;;;;;;;8.45;4.75;;;7.60;99.90;;;;;;4137154;28;20042;-68
2021/04/24 04:05:09;;;;;;;8.40;4.72;;;7.70;99.90;;;;;;4142322;28;20367;-68
2021/04/24 04:07:10;;;;;;;8.30;4.20;;;7.60;99.90;;;;;;4124837;28;20109;-68
2021/04/24 04:09:10;;;;;;;9.23;4.68;;;7.70;99.90;;;;;;4141968;28;20041;-68
2021/04/24 04:11:11;;;;;;;9.25;4.97;;;7.60;99.90;;;;;;4141287;28;20060;-68
2021/04/24 04:13:13;;;;;;;7.72;4.30;;;7.60;99.90;;;;;;4165365;28;20557;-68
2021/04/24 04:15:16;;;;;;;7.80;4.75;;;7.60;99.90;;;;;;4142344;28;20033;-68
2021/04/24 04:17:16;;;;;;;8.50;4.57;;;7.60;99.90;;;;;;4135965;28;20352;-68
2021/04/24 04:19:17;;;;;;;8.02;4.60;;;7.60;99.90;;;;;;4118902;28;20064;-68
2021/04/24 04:21:18;;;;;;;7.97;4.45;;;7.60;99.90;;;;;;4125966;28;20033;-69
2021/04/24 04:23:19;;;;;;;7.38;4.90;;;7.60;99.90;;;;;;4134263;28;20104;-69
2021/04/24 04:25:20;;;;;;;9.77;4.53;;;7.60;99.90;;;;;;4122713;28;20054;-69
2021/04/24 04:27:21;;;;;;;8.82;4.70;;;7.60;99.90;;;;;;4134518;28;20048;-69
2021/04/24 04:29:21;;;;;;;10.48;4.78;;;7.60;99.90;;;;;;4120632;28;20390;-69
2021/04/24 04:31:22;;;;;;;8.68;4.82;;;7.60;99.90;;;;;;4119888;28;20047;-69
2021/04/24 04:33:23;;;;;;;9.75;5.10;;;7.60;99.90;;;;;;4123113;28;20038;-69
2021/04/24 04:35:24;;;;;;;9.77;5.13;;;7.50;99.90;;;;;;4119359;28;20071;-69
2021/04/24 04:37:25;;;;;;;9.77;4.45;;;7.60;99.90;;;;;;4123245;28;20038;-69
2021/04/24 04:39:26;;;;;;;9.35;4.70;;;7.60;99.90;;;;;;4138172;28;20030;-69
2021/04/24 04:41:26;;;;;;;8.77;5.13;;;7.50;99.90;;;;;;4124145;28;20492;-69
2021/04/24 04:43:27;;;;;;;8.77;4.72;;;7.50;99.90;;;;;;4121855;28;20161;-68
2021/04/24 04:45:28;;;;;;;13.30;4.72;;;7.60;99.90;;;;;;4120018;28;20093;-69
2021/04/24 04:47:28;;;;;;;8.55;5.32;;;7.60;99.90;;;;;;4138676;28;20035;-68
2021/04/24 04:49:29;;;;;;;11.32;4.97;;;7.50;99.90;;;;;;4124795;28;20034;-69
2021/04/24 04:51:29;;;;;;;9.63;5.03;;;7.60;99.90;;;;;;4123719;28;20071;-69
2021/04/24 04:53:30;;;;;;;10.27;5.57;;;7.60;99.90;;;;;;4125349;28;20030;-69
2021/04/24 04:55:31;;;;;;;8.68;4.88;;;7.50;99.90;;;;;;4124040;28;20034;-68
2021/04/24 04:57:32;;;;;;;10.18;5.78;;;7.50;99.90;;;;;;4128640;28;20375;-68
2021/04/24 04:59:32;;;;;;;15.93;6.32;;;7.50;99.90;;;;;;4121236;28;20683;-68
2021/04/24 05:01:33;;;;;;;11.85;5.65;;;7.40;99.90;;;;;;4154441;28;20124;-68
2021/04/24 05:03:34;;;;;;;10.07;5.80;;;7.40;99.90;;;;;;4125748;28;20184;-68
2021/04/24 05:05:34;;;;;;;8.88;5.40;;;7.40;99.90;;;;;;4122877;28;20522;-68
2021/04/24 05:07:35;;;;;;;9.02;5.20;;;7.40;99.90;;;;;;4138259;28;20038;-68
2021/04/24 05:09:35;;;;;;;10.57;5.38;;;7.40;99.90;;;;;;4125352;28;20367;-68
2021/04/24 05:11:36;;;;;;;8.25;5.13;;;7.40;99.90;;;;;;4122815;28;20038;-69
2021/04/24 05:13:37;;;;;;;9.50;5.47;;;7.40;99.90;;;;;;4126731;28;20216;-68
2021/04/24 05:15:37;;;;;;;8.05;4.82;;;7.40;99.90;;;;;;4142655;28;20026;-68
2021/04/24 05:17:38;;;;;;;11.07;5.43;;;7.40;99.90;;;;;;4123996;28;20089;-68
2021/04/24 05:19:38;;;;;;;11.95;5.55;;;7.40;99.90;;;;;;4128392;28;20041;-69
2021/04/24 05:21:39;;;;;;;9.93;5.35;;;7.50;99.90;;;;;;4141085;28;20038;-68
2021/04/24 05:23:40;;;;;;;9.43;5.45;;;7.50;99.90;;;;;;4116523;28;20450;-68
2021/04/24 05:25:40;;;;;;;8.98;5.32;;;7.50;99.90;;;;;;4124187;28;20057;-69
2021/04/24 05:27:46;;;;;;;8.88;5.20;;;7.60;99.90;;;;;;4125586;28;20033;-68
2021/04/24 05:29:46;;;;;;;11.98;5.57;;;7.60;99.90;;;;;;4122938;28;20479;-69
2021/04/24 05:31:47;;;;;;;10.43;5.38;;;7.60;99.90;;;;;;4138501;28;20057;-69
2021/04/24 05:33:47;;;;;;;10.63;6.03;;;7.60;99.90;;;;;;4138894;28;20084;-69
2021/04/24 05:35:48;;;;;;;11.02;5.95;;;7.60;99.90;;;;;;4119977;28;20171;-69
2021/04/24 05:37:49;;;;;;;9.85;5.75;;;7.60;99.90;;;;;;4155005;28;20042;-69
2021/04/24 05:39:52;;;;;;;10.32;5.25;;;7.60;99.90;;;;;;4143769;28;20040;-69
2021/04/24 05:41:53;;;;;;;11.63;6.20;;;7.70;99.90;;;;;;4159526;28;20077;-69
2021/04/24 05:43:56;;;;;;;8.80;5.45;;;7.70;99.90;;;;;;4142293;28;20216;-69
2021/04/24 05:45:57;;;;;;;10.00;5.70;;;7.70;99.90;;;;;;4144358;28;20088;-69
2021/04/24 05:47:57;;;;;;;10.55;5.97;;;7.70;99.90;;;;;;4144376;28;20038;-69
2021/04/24 05:49:58;;;;;;;10.90;6.03;;;7.70;99.90;;;;;;4142713;28;20113;-69
2021/04/24 05:52:01;;;;;;;10.73;5.35;;;7.70;99.90;;;;;;4142031;28;20528;-69
2021/04/24 05:54:01;;;;;;;10.77;5.82;;;7.70;99.90;;;;;;4143246;28;20057;-69
2021/04/24 05:56:02;;;;;;;9.02;5.70;;;7.80;99.90;;;;;;4143744;28;20528;-69
2021/04/24 05:58:03;;;;;;;11.50;6.43;;;7.80;99.90;;;;;;4142699;28;20038;-69
2021/04/24 06:00:08;;;;;;;12.73;6.28;;;7.90;99.90;;;;;;4143011;28;20041;-69
2021/04/24 06:02:08;;;;;;;12.43;6.30;;;7.90;99.90;;;;;;4155845;28;20030;-69
2021/04/24 06:04:09;;;;;;;14.85;6.95;;;7.90;99.90;;;;;;4167183;28;20036;-69
2021/04/24 06:06:10;;;;;;;10.38;6.05;;;8.00;99.90;;;;;;4144308;28;20097;-69
2021/04/24 06:08:11;;;;;;;12.38;6.40;;;8.00;99.90;;;;;;4143601;28;20038;-69
2021/04/24 06:10:14;;;;;;;10.30;5.88;;;8.00;99.90;;;;;;4144836;28;20022;-69
2021/04/24 06:12:33;;;;;;;11.95;6.47;;;8.00;99.90;;;;;;4139375;28;20033;-69
2021/04/24 06:14:54;;;;;;;11.25;5.93;;;8.00;99.90;;;;;;4141095;28;20049;-69
2021/04/24 06:16:56;;;;;;;17.85;6.82;;;8.10;99.90;;;;;;4143060;28;20084;-69
2021/04/24 06:18:57;;;;;;;14.27;6.83;;;8.10;99.90;;;;;;4143985;28;20696;-69
2021/04/24 06:20:57;;;;;;;12.98;6.68;;;8.20;99.90;;;;;;4143816;28;20358;-69
2021/04/24 06:22:58;;;;;;;11.63;6.70;;;8.20;99.90;;;;;;4144188;28;20069;-69
2021/04/24 06:24:59;;;;;;;10.43;6.38;;;8.20;99.90;;;;;;4158600;28;20037;-69
2021/04/24 06:26:59;;;;;;;15.70;6.85;;;8.20;99.90;;;;;;4142519;28;20065;-69
2021/04/24 06:29:00;;;;;;;10.98;6.53;;;8.20;99.90;;;;;;4143332;28;21326;-69
2021/04/24 06:31:01;;;;;;;11.60;6.43;;;8.20;99.90;;;;;;4163419;28;20051;-69
2021/04/24 06:33:01;;;;;;;11.60;6.60;;;8.30;99.90;;;;;;4158264;28;20029;-69
2021/04/24 06:35:04;;;;;;;13.55;7.05;;;8.30;99.90;;;;;;4143500;28;20057;-70
2021/04/24 06:37:05;;;;;;;10.30;6.20;;;8.40;99.90;;;;;;4170341;28;20043;-70
2021/04/24 06:39:06;;;;;;;10.98;6.32;;;8.40;99.90;;;;;;4142304;28;20033;-70
2021/04/24 06:41:07;;;;;;;12.07;6.45;;;8.50;99.90;;;;;;4143472;28;20037;-70
2021/04/24 06:43:08;;;;;;;12.98;6.68;;;8.50;99.90;;;;;;4143800;28;20045;-71
2021/04/24 06:45:10;;;;;;;12.18;6.57;;;8.60;99.90;;;;;;4158197;28;20049;-70
2021/04/24 06:47:12;;;;;;;14.13;6.97;;;8.60;99.90;;;;;;4139475;28;20096;-71
2021/04/24 06:49:12;;;;;;;13.48;6.82;;;8.60;99.90;;;;;;4139821;28;20053;-71
2021/04/24 06:51:13;;;;;;;11.50;6.70;;;8.70;99.90;;;;;;4139054;28;20033;-70
2021/04/24 06:53:13;;;;;;;11.52;6.32;;;8.80;99.90;;;;;;4142747;28;20676;-70
2021/04/24 06:55:17;;;;;;;12.32;6.82;;;8.80;99.90;;;;;;4142944;28;20113;-70
2021/04/24 06:57:18;;;;;;;13.50;7.75;;;8.80;99.90;;;;;;4127166;28;20053;-70
2021/04/24 06:59:18;;;;;;;20.75;8.05;;;8.70;99.90;;;;;;4125068;28;20043;-70
2021/04/24 07:01:19;;;;;;;12.38;6.90;;;8.60;99.90;;;;;;4124512;28;20035;-70
2021/04/24 07:03:19;;;;;;;10.55;6.10;;;8.60;99.90;;;;;;4124654;28;20391;-71
2021/04/24 07:05:20;;;;;;;15.55;6.78;;;8.70;99.90;;;;;;4126736;28;20166;-70
2021/04/24 07:07:21;;;;;;;14.65;7.18;;;8.60;99.90;;;;;;4139641;28;20029;-70
2021/04/24 07:09:21;;;;;;;10.65;6.15;;;8.60;99.90;;;;;;4135325;28;20121;-70
2021/04/24 07:11:22;;;;;;;12.65;6.00;;;8.70;99.90;;;;;;4140204;28;20092;-71
2021/04/24 07:13:22;;;;;;;14.25;7.00;;;8.80;99.90;;;;;;4139831;28;20037;-70
2021/04/24 07:15:23;;;;;;;11.15;6.38;;;8.80;99.90;;;;;;4142090;28;20121;-71
2021/04/24 07:17:24;;;;;;;11.15;6.65;;;8.80;99.90;;;;;;4141133;28;20390;-68
2021/04/24 07:19:25;;;;;;;14.70;6.68;;;8.80;99.90;;;;;;4141939;28;20096;-69
2021/04/24 07:21:26;;;;;;;13.07;6.65;;;8.90;99.90;;;;;;4141763;28;20034;-69
2021/04/24 07:23:26;;;;;;;12.32;6.20;;;8.80;99.90;;;;;;4140707;28;20038;-68
2021/04/24 07:25:27;;;;;;;17.98;6.20;;;8.80;99.90;;;;;;4163858;28;20021;-68
2021/04/24 07:27:28;;;;;;;10.43;6.40;;;8.80;99.90;;;;;;4138452;28;20398;-68
2021/04/24 07:29:28;;;;;;;13.88;6.05;;;8.80;99.90;;;;;;4143724;28;20117;-69
2021/04/24 07:31:29;;;;;;;11.93;6.47;;;8.80;99.90;;;;;;4142589;28;20046;-68
2021/04/24 07:33:29;;;;;;;13.38;6.40;;;8.90;99.90;;;;;;4141028;28;20034;-68
2021/04/24 07:35:30;;;;;;;12.07;6.57;;;8.90;99.90;;;;;;4141157;28;20084;-68
2021/04/24 07:37:32;;;;;;;11.60;6.38;;;8.80;99.90;;;;;;4142739;28;20568;-69
2021/04/24 07:39:32;;;;;;;12.48;6.18;;;8.90;99.90;;;;;;4140290;28;20052;-68
2021/04/24 07:41:33;;;;;;;14.38;6.28;;;9.00;99.90;;;;;;4153460;28;20132;-69
2021/04/24 07:43:35;;;;;;;14.73;6.00;;;9.10;99.90;;;;;;4164650;28;20057;-68
2021/04/24 07:45:36;;;;;;;10.87;6.37;;;9.10;99.90;;;;;;4138161;28;20056;-69
2021/04/24 07:47:37;;;;;;;12.88;5.75;;;9.10;99.90;;;;;;4141486;28;20265;-69
2021/04/24 07:49:39;;;;;;;8.85;5.10;;;9.20;99.90;;;;;;4142404;28;20041;-68
2021/04/24 07:51:39;;;;;;;11.07;5.72;;;9.30;99.90;;;;;;4141523;28;20034;-67
2021/04/24 07:53:42;;;;;;;9.70;6.05;;;9.40;99.90;;;;;;4143062;28;20038;-67
2021/04/24 07:55:43;;;;;;;11.43;6.05;;;9.40;99.90;;;;;;4163838;28;20474;-67
2021/04/24 07:57:43;;;;;;;11.32;5.55;;;9.50;99.90;;;;;;4157246;28;20095;-67
2021/04/24 07:59:45;;;;;;;11.73;5.93;;;9.60;99.90;;;;;;4140876;28;20601;-67
2021/04/24 08:01:45;;;;;;;9.27;5.38;;;9.60;99.90;;;;;;4141947;28;20789;-67
2021/04/24 08:03:46;;;;;;;8.27;5.50;;;9.70;99.90;;;;;;4142321;28;20065;-67
2021/04/24 08:05:46;;;;;;;8.68;4.57;;;9.90;99.90;;;;;;4167044;28;20090;-67
2021/04/24 08:07:47;;;;;;;14.55;5.60;;;10.00;99.90;;;;;;4141092;28;20045;-67
2021/04/24 08:09:48;;;;;;;9.32;5.82;;;10.10;99.90;;;;;;4141710;28;20058;-69
2021/04/24 08:11:49;;;;;;;7.03;4.68;;;10.20;99.90;;;;;;4142507;28;20053;-66
2021/04/24 08:13:50;;;;;;;9.07;4.28;;;10.30;99.90;;;;;;4155093;28;20038;-67
2021/04/24 08:15:51;;;;;;;9.68;3.90;;;10.20;99.90;;;;;;4162171;28;20578;-66
2021/04/24 08:17:52;;;;;;;8.90;3.17;;;10.00;99.90;;;;;;4136120;28;20130;-66
2021/04/24 08:19:52;;;;;;;4.65;3.40;;;10.00;99.90;;;;;;4140949;28;20393;-67
2021/04/24 08:21:54;;;;;;;8.02;3.55;;;10.20;99.90;;;;;;4129954;28;20076;-66
2021/04/24 08:24:00;;;;;;;8.77;4.35;;;10.20;99.90;;;;;;4139529;28;20537;-67
2021/04/24 08:26:01;;;;;;;7.00;3.97;;;10.10;99.90;;;;;;4141969;28;20374;-67
2021/04/24 08:28:02;;;;;;;9.52;3.50;;;10.10;99.90;;;;;;4141888;28;20042;-67
2021/04/24 08:30:05;;;;;;;6.30;3.47;;;10.20;99.90;;;;;;4141126;28;20390;-67
2021/04/24 08:32:08;;;;;;;8.32;4.55;;;10.30;99.90;;;;;;4141620;28;20083;-67
2021/04/24 08:34:10;;;;;;;8.40;3.65;;;10.40;99.90;;;;;;4138910;28;20405;-67
2021/04/24 08:36:11;;;;;;;7.70;4.18;;;10.40;99.90;;;;;;4138490;28;20481;-67
2021/04/24 08:38:11;;;;;;;6.60;3.55;;;10.60;99.90;;;;;;4163484;28;20033;-67
2021/04/24 08:40:15;;;;;;;6.35;3.58;;;10.70;99.90;;;;;;4138391;28;20149;-67
2021/04/24 08:42:16;;;;;;;7.05;3.42;;;10.80;99.90;;;;;;4141717;28;20480;-67
2021/04/24 08:44:18;;;;;;;7.38;3.30;;;10.80;99.90;;;;;;4138407;28;20054;-67
2021/04/24 08:46:19;;;;;;;6.55;3.25;;;11.10;99.90;;;;;;4136969;28;20366;-67
2021/04/24 08:48:20;;;;;;;5.05;3.53;;;11.20;99.90;;;;;;4139379;28;20030;-67
2021/04/24 08:50:32;;;;;;;7.03;3.63;;;11.30;99.90;;;;;;4137092;28;20022;-66
2021/04/24 08:52:33;;;;;;;7.32;3.10;;;11.20;99.90;;;;;;4138565;28;20584;-69
2021/04/24 08:54:34;;;;;;;8.32;3.65;;;11.10;99.90;;;;;;4151865;28;20057;-67
2021/04/24 08:56:34;;;;;;;8.25;3.63;;;11.00;99.90;;;;;;4140308;28;20092;-69
2021/04/24 08:58:35;;;;;;;6.97;4.22;;;11.10;99.90;;;;;;4140347;28;20044;-68
2021/04/24 09:00:38;;;;;;;7.60;3.80;;;11.00;99.90;;;;;;4136581;28;20038;-68
2021/04/24 09:02:42;;;;;;;5.97;3.70;;;11.00;99.90;;;;;;4164717;28;20030;-68
2021/04/24 09:04:43;;;;;;;8.10;3.90;;;11.20;99.90;;;;;;4140328;28;20060;-68
2021/04/24 09:06:44;;;;;;;4.45;2.92;;;11.50;99.90;;;;;;4141446;28;20084;-68
2021/04/24 09:09:01;;;;;;;7.75;4.15;;;11.60;99.90;;;;;;4137746;28;20049;-68
2021/04/24 09:11:21;;;;;;;6.07;3.75;;;11.70;99.90;;;;;;4137601;28;20028;-68
2021/04/24 09:13:40;;;;;;;6.50;4.00;;;11.70;99.90;;;;;;4154466;28;20163;-68
2021/04/24 09:15:41;;;;;;;6.20;3.28;;;11.80;99.90;;;;;;4140255;28;20034;-68
2021/04/24 09:17:50;;;;;;;10.02;4.25;;;12.00;99.90;;;;;;4141332;28;20100;-68
2021/04/24 09:19:51;;;;;;;5.85;3.72;;;11.80;98.70;;;;;;4124563;28;20046;-68
2021/04/24 09:22:10;;;;;;;9.23;4.00;;;11.90;99.50;;;;;;4156362;28;20046;-68
2021/04/24 09:24:37;;;;;;;7.80;4.30;;;12.20;99.90;;;;;;4139703;28;20398;-68
2021/04/24 09:26:45;;;;;;;6.93;4.10;;;12.50;99.90;;;;;;4134113;28;20101;-68
2021/04/24 09:28:50;;;;;;;8.07;4.40;;;12.70;99.90;;;;;;4123238;28;20379;-68
2021/04/24 09:30:51;;;;;;;7.35;4.13;;;12.60;99.90;;;;;;4138594;28;20104;-68
2021/04/24 09:32:52;;;;;;;5.43;3.47;;;12.50;96.00;;;;;;4140105;28;20486;-68
2021/04/24 09:34:54;;;;;;;7.53;4.13;;;12.50;99.90;;;;;;4157194;28;20064;-68
2021/04/24 09:36:55;;;;;;;6.43;3.95;;;12.60;99.90;;;;;;4129867;28;20173;-68
2021/04/24 09:38:59;;;;;;;6.38;4.00;;;12.70;99.90;;;;;;4159170;28;20046;-68
2021/04/24 09:41:14;;;;;;;6.63;3.90;;;12.90;99.90;;;;;;4159676;28;20075;-68
2021/04/24 09:43:14;;;;;;;5.65;3.38;;;13.10;99.90;;;;;;4141790;28;20046;-68
2021/04/24 09:45:30;;;;;;;5.47;3.28;;;13.20;99.90;;;;;;4142868;28;20033;-68
2021/04/24 09:47:41;;;;;;;6.82;3.75;;;13.40;99.90;;;;;;4139583;28;20046;-68
2021/04/24 09:49:42;;;;;;;6.85;3.33;;;13.50;99.90;;;;;;4153287;28;20076;-68
2021/04/24 09:51:46;;;;;;;4.65;3.25;;;13.60;99.20;;;;;;4136445;28;20042;-68
2021/04/24 09:54:14;;;;;;;7.97;3.58;;;13.70;95.30;;;;;;4144752;28;20430;-68
2021/04/24 09:56:14;;;;;;;5.82;3.03;;;13.50;92.70;;;;;;4146491;28;20479;-68
2021/04/24 09:58:35;;;;;;;5.15;3.20;;;13.50;94.10;;;;;;4142481;28;20042;-68
2021/04/24 10:00:36;;;;;;;3.88;2.65;;;13.50;95.00;;;;;;4134288;28;20034;-68
2021/04/24 10:02:45;;;;;;;3.42;2.75;;;13.60;95.50;;;;;;4140248;28;20056;-68
2021/04/24 10:05:05;;;;;;;6.07;3.47;;;13.60;94.70;;;;;;4138656;28;20109;-68
2021/04/24 10:07:05;;;;;;;3.83;2.38;;;13.70;94.80;;;;;;4124381;28;20069;-68
2021/04/24 10:09:15;;;;;;;4.05;2.83;;;13.80;94.90;;;;;;4142797;28;20460;-68
2021/04/24 10:11:44;;;;;;;4.97;3.15;;;13.90;95.50;;;;;;4142930;28;20022;-68
2021/04/24 10:13:45;;;;;;;6.28;3.10;;;13.80;93.70;;;;;;4137189;28;20045;-68
2021/04/24 10:15:47;;;;;;;5.25;3.22;;;13.70;88.30;;;;;;4156564;28;20091;-68
2021/04/24 10:17:48;;;;;;;4.45;3.15;;;13.60;90.40;;;;;;4142807;28;20038;-68
2021/04/24 10:19:49;;;;;;;8.38;3.80;;;13.70;90.50;;;;;;4144678;28;20534;-68
2021/04/24 10:21:50;;;;;;;4.70;2.92;;;13.40;84.60;;;;;;4143949;28;20034;-68
2021/04/24 10:23:52;;;;;;;5.45;2.97;;;13.50;90.20;;;;;;4141007;28;20346;-68
2021/04/24 10:25:53;;;;;;;4.22;3.00;;;13.60;89.90;;;;;;4138688;28;20129;-68
2021/04/24 10:27:55;;;;;;;5.13;3.08;;;13.50;84.60;;;;;;4136485;28;20053;-68
2021/04/24 10:29:56;;;;;;;3.67;2.72;;;13.60;88.50;;;;;;4138705;28;20076;-68
2021/04/24 10:31:57;;;;;;;7.32;2.83;;;13.70;91.10;;;;;;4169799;28;20045;-68
2021/04/24 10:33:59;;;;;;;4.50;3.10;;;13.70;90.30;;;;;;4143039;28;20137;-68
2021/04/24 10:36:00;;;;;;;5.30;3.17;;;13.90;90.80;;;;;;4142603;28;20046;-68
2021/04/24 10:38:03;;;;;;;6.18;3.47;;;14.00;92.00;;;;;;4142315;28;20045;-68
2021/04/24 10:40:04;;;;;;;4.68;2.90;;;14.00;91.80;;;;;;4142929;28;20053;-68